Time;durP1;ratioP1;P1;durP2;ratioP2;P2;SDS_P1;SDS_P2;PMS_P1;PMS_P2;Temp;Humidity;BMP_temperature;BMP_pressure;BME280_temperature;BME280_humidity;BME280_pressure;Samples;Min_cycle;Max_cycle;Signal;HPM_P1;HPM_P2
2022/03/25 00:01:56;;;;;;;42.08;23.90;;;;;;;9.38;62.47;103160.94;5097406;28;20324;-79
2022/03/25 00:04:21;;;;;;;42.17;22.98;;;;;;;9.37;62.38;103150.50;5096371;28;20051;-79
2022/03/25 00:06:47;;;;;;;41.35;22.98;;;;;;;9.36;62.36;103159.22;5098322;28;20023;-79
2022/03/25 00:09:12;;;;;;;39.17;22.20;;;;;;;9.33;62.37;103154.84;5096330;28;20040;-79
2022/03/25 00:11:38;;;;;;;41.38;21.77;;;;;;;9.32;62.24;103162.69;5121953;28;20285;-79
2022/03/25 00:14:03;;;;;;;43.28;22.65;;;;;;;9.30;62.32;103161.81;5082264;28;20076;-79
2022/03/25 00:16:29;;;;;;;40.47;21.63;;;;;;;9.27;62.30;103159.19;5111704;28;20063;-79
2022/03/25 00:18:54;;;;;;;39.70;23.02;;;;;;;9.23;62.24;103160.94;5063361;28;20030;-78
2022/03/25 00:21:21;;;;;;;42.10;22.88;;;;;;;9.20;62.45;103159.19;5121728;28;20275;-79
2022/03/25 00:23:46;;;;;;;40.03;22.58;;;;;;;9.18;62.20;103162.66;5106570;28;20103;-79
2022/03/25 00:26:12;;;;;;;41.00;22.73;;;;;;;9.15;62.46;103157.41;5093960;28;20055;-79
2022/03/25 00:28:38;;;;;;;40.13;22.33;;;;;;;9.10;62.24;103160.03;5113886;28;20031;-78
2022/03/25 00:31:07;;;;;;;36.38;21.63;;;;;;;9.07;62.39;103170.47;5076556;28;20035;-79
2022/03/25 00:33:33;;;;;;;45.72;22.88;;;;;;;9.04;62.62;103162.63;5109497;27;20032;-79
2022/03/25 00:35:58;;;;;;;38.67;21.65;;;;;;;8.99;62.86;103160.00;5101881;28;20096;-78
2022/03/25 00:38:24;;;;;;;42.33;22.98;;;;;;;8.97;62.76;103155.66;5119742;28;20227;-79
2022/03/25 00:40:49;;;;;;;39.67;21.13;;;;;;;8.94;62.58;103160.84;5081793;28;20338;-78
2022/03/25 00:43:15;;;;;;;41.60;22.17;;;;;;;8.91;62.66;103161.69;5084668;28;20039;-79
2022/03/25 00:45:41;;;;;;;39.63;22.95;;;;;;;8.86;62.52;103162.56;5102757;28;20117;-79
2022/03/25 00:48:07;;;;;;;48.50;23.90;;;;;;;8.84;62.78;103159.94;5085708;28;20346;-78
2022/03/25 00:50:33;;;;;;;54.33;27.08;;;;;;;8.79;62.61;103148.59;5101563;28;20145;-79
2022/03/25 00:52:58;;;;;;;63.22;30.35;;;;;;;8.76;62.78;103151.19;5120150;28;20035;-79
2022/03/25 00:55:24;;;;;;;67.80;32.38;;;;;;;8.72;62.89;103160.75;5064491;28;20227;-79
2022/03/25 00:57:49;;;;;;;69.72;32.53;;;;;;;8.70;63.10;103154.66;5090751;28;20034;-79
2022/03/25 01:00:15;;;;;;;67.10;30.67;;;;;;;8.67;63.05;103151.16;5084639;28;20034;-78
2022/03/25 01:02:40;;;;;;;64.75;31.70;;;;;;;8.63;63.03;103153.75;5102268;28;20107;-79
2022/03/25 01:05:06;;;;;;;62.92;29.52;;;;;;;8.60;63.16;103145.94;5102189;28;20234;-78
2022/03/25 01:07:31;;;;;;;58.90;28.65;;;;;;;8.58;63.20;103152.84;5101343;28;20044;-78
2022/03/25 01:09:57;;;;;;;53.53;26.83;;;;;;;8.56;63.35;103157.22;5102439;28;20038;-78
2022/03/25 01:12:23;;;;;;;50.70;25.60;;;;;;;8.53;63.44;103159.81;5119850;28;20039;-79
2022/03/25 01:14:48;;;;;;;52.90;27.00;;;;;;;8.50;63.63;103157.19;5101830;28;20306;-79
2022/03/25 01:17:16;;;;;;;54.92;26.75;;;;;;;8.47;63.58;103157.16;5119444;28;20064;-79
2022/03/25 01:19:41;;;;;;;55.75;26.73;;;;;;;8.45;63.70;103156.28;5118253;27;20035;-78
2022/03/25 01:22:07;;;;;;;48.42;24.70;;;;;;;8.41;63.77;103150.13;5101854;28;20054;-78
2022/03/25 01:24:32;;;;;;;43.97;23.20;;;;;;;8.39;63.68;103158.84;5120628;27;20581;-78
2022/03/25 01:26:59;;;;;;;42.00;22.85;;;;;;;8.37;63.59;103158.84;5119923;28;20211;-78
2022/03/25 01:29:24;;;;;;;38.92;21.40;;;;;;;8.35;63.43;103157.94;5127416;27;20035;-79
2022/03/25 01:31:50;;;;;;;39.40;21.13;;;;;;;8.32;63.42;103163.16;5114186;27;20216;-79
2022/03/25 01:34:16;;;;;;;36.47;21.00;;;;;;;8.30;63.52;103153.56;5121405;27;20039;-78
2022/03/25 01:36:41;;;;;;;38.47;20.67;;;;;;;8.29;63.38;103157.03;5123205;27;20055;-78
2022/03/25 01:39:06;;;;;;;36.22;20.00;;;;;;;8.26;63.42;103156.16;5083378;28;20360;-79
2022/03/25 01:41:32;;;;;;;37.63;20.77;;;;;;;8.24;63.33;103150.06;5097809;28;20080;-78
2022/03/25 01:43:59;;;;;;;35.00;19.92;;;;;;;8.21;63.28;103142.19;5099904;28;20035;-79
2022/03/25 01:46:26;;;;;;;31.02;19.63;;;;;;;8.19;63.02;103149.16;5118706;28;20053;-78
2022/03/25 01:48:53;;;;;;;34.22;20.48;;;;;;;8.17;63.07;103152.63;5107697;27;20035;-78
2022/03/25 01:51:23;;;;;;;36.15;21.30;;;;;;;8.14;63.03;103148.25;5066990;28;20043;-79
2022/03/25 01:53:48;;;;;;;37.63;20.85;;;;;;;8.14;63.06;103153.47;5100772;28;20027;-78
2022/03/25 01:56:19;;;;;;;37.60;20.83;;;;;;;8.12;62.97;103151.72;5100642;28;20031;-78
2022/03/25 01:58:45;;;;;;;37.50;21.40;;;;;;;8.09;63.12;103144.72;5083581;28;20027;-79
2022/03/25 02:01:10;;;;;;;36.50;21.00;;;;;;;8.08;63.15;103148.22;5084044;28;20047;-78
2022/03/25 02:03:37;;;;;;;35.60;21.02;;;;;;;8.07;63.22;103152.53;5100262;28;20284;-78
2022/03/25 02:06:04;;;;;;;40.42;21.70;;;;;;;8.05;63.10;103150.78;5101160;28;20050;-79
2022/03/25 02:08:29;;;;;;;38.10;21.55;;;;;;;8.03;63.17;103145.56;5100077;28;20047;-78
2022/03/25 02:10:56;;;;;;;43.33;21.33;;;;;;;8.01;62.90;103149.91;5083602;28;20064;-79
2022/03/25 02:13:22;;;;;;;39.22;21.80;;;;;;;8.00;63.06;103149.88;5100021;28;20357;-78
2022/03/25 02:15:48;;;;;;;40.78;23.08;;;;;;;7.97;63.25;103150.75;5118332;28;20039;-79
2022/03/25 02:18:15;;;;;;;38.92;22.05;;;;;;;7.95;63.22;103155.09;5100204;28;20280;-78
2022/03/25 02:20:42;;;;;;;41.17;22.02;;;;;;;7.93;63.09;103154.19;5114077;28;20031;-79
2022/03/25 02:23:09;;;;;;;42.85;22.88;;;;;;;7.90;63.12;103148.94;5100285;28;20023;-79
2022/03/25 02:25:35;;;;;;;43.22;22.90;;;;;;;7.88;63.23;103141.09;5099371;28;20038;-78
2022/03/25 02:28:04;;;;;;;38.00;21.77;;;;;;;7.85;63.45;103154.13;5080831;28;20091;-78
2022/03/25 02:30:30;;;;;;;;;;;;;;;7.83;63.42;103149.75;5118879;28;20098;-79
2022/03/25 02:33:02;;;;;;;38.88;21.38;;;;;;;7.81;63.58;103148.88;5126090;27;19981;-78
2022/03/25 02:35:49;;;;;;;41.90;23.70;;;;;;;7.78;63.30;103151.47;5101376;28;20330;-79
2022/03/25 02:38:21;;;;;;;49.35;25.67;;;;;;;7.75;63.70;103154.94;5101896;27;20086;-79
2022/03/25 02:40:47;;;;;;;41.58;23.17;;;;;;;7.73;63.71;103151.44;5125367;27;20102;-79
2022/03/25 02:43:13;;;;;;;42.65;23.77;;;;;;;7.70;63.94;103154.00;5101675;27;20027;-78
2022/03/25 02:45:39;;;;;;;44.53;24.63;;;;;;;7.69;64.08;103150.53;5119481;27;20342;-78
2022/03/25 02:48:05;;;;;;;51.03;26.15;;;;;;;7.69;64.45;103154.84;5138737;27;20462;-79
2022/03/25 02:50:30;;;;;;;46.90;25.42;;;;;;;7.68;64.66;103155.75;5126898;27;20039;-78
2022/03/25 02:52:58;;;;;;;45.50;25.98;;;;;;;7.68;64.82;103158.34;5099707;28;20039;-78
2022/03/25 02:55:24;;;;;;;48.60;26.30;;;;;;;7.66;64.63;103153.13;5117178;28;20089;-78
2022/03/25 02:57:51;;;;;;;47.70;27.15;;;;;;;7.65;64.43;103148.75;5099750;28;20019;-78
2022/03/25 03:00:19;;;;;;;52.75;27.17;;;;;;;7.65;64.55;103150.47;5117439;28;20046;-79
2022/03/25 03:02:45;;;;;;;52.15;27.77;;;;;;;7.63;64.50;103152.22;5123185;27;20072;-78
2022/03/25 03:05:11;;;;;;;50.20;27.25;;;;;;;7.62;64.75;103147.84;5118303;28;20032;-79
2022/03/25 03:07:36;;;;;;;51.08;29.83;;;;;;;7.61;64.75;103144.38;5082283;28;20054;-79
2022/03/25 03:10:06;;;;;;;55.88;29.98;;;;;;;7.61;65.00;103153.94;5099885;28;20031;-78
2022/03/25 03:12:32;;;;;;;54.47;30.65;;;;;;;7.59;65.10;103148.69;5099486;28;20051;-79
2022/03/25 03:15:01;;;;;;;51.55;29.58;;;;;;;7.57;65.01;103146.94;5119330;28;20070;-78
2022/03/25 03:17:27;;;;;;;57.47;30.88;;;;;;;7.55;65.10;103149.53;5117658;28;20040;-78
2022/03/25 03:19:53;;;;;;;54.10;30.25;;;;;;;7.54;65.16;103146.91;5083033;28;20060;-79
2022/03/25 03:22:19;;;;;;;57.20;31.10;;;;;;;7.50;65.46;103146.88;5082310;28;20033;-78
2022/03/25 03:24:45;;;;;;;56.88;31.17;;;;;;;7.49;65.28;103144.25;5099469;28;20034;-78
2022/03/25 03:27:11;;;;;;;55.45;31.20;;;;;;;7.48;65.41;103146.00;5099651;28;20016;-79
2022/03/25 03:29:36;;;;;;;52.97;30.65;;;;;;;7.47;65.40;103149.44;5099544;28;20060;-79
2022/03/25 03:32:03;;;;;;;57.85;31.77;;;;;;;7.45;65.30;103147.69;5099111;28;20042;-78
2022/03/25 03:34:28;;;;;;;57.58;32.40;;;;;;;7.43;65.40;103145.06;5117125;28;20039;-78
2022/03/25 03:36:54;;;;;;;61.70;32.38;;;;;;;7.41;65.56;103146.78;5082020;28;20104;-79
2022/03/25 03:39:19;;;;;;;60.85;32.42;;;;;;;7.40;65.89;103144.16;5100865;28;20035;-78
2022/03/25 03:41:45;;;;;;;58.95;31.73;;;;;;;7.37;65.69;103149.34;5082496;28;20027;-78
2022/03/25 03:44:10;;;;;;;64.28;32.22;;;;;;;7.34;65.80;103144.13;5099455;28;20023;-79
2022/03/25 03:46:36;;;;;;;60.97;32.22;;;;;;;7.33;65.65;103137.16;5117596;28;20073;-78
2022/03/25 03:49:01;;;;;;;55.42;30.77;;;;;;;7.30;65.60;103133.66;5117730;28;20058;-78
2022/03/25 03:51:27;;;;;;;61.00;33.63;;;;;;;7.27;65.59;103138.84;5104066;28;20066;-79
2022/03/25 03:53:53;;;;;;;61.72;31.58;;;;;;;7.25;65.81;103140.56;5103955;28;20115;-79
2022/03/25 03:56:18;;;;;;;57.95;31.30;;;;;;;7.23;65.87;103144.88;5081876;28;20058;-78
2022/03/25 03:58:44;;;;;;;61.95;32.35;;;;;;;7.20;66.01;103143.97;5132382;28;20132;-79
2022/03/25 04:01:10;;;;;;;57.22;32.08;;;;;;;7.17;65.85;103142.22;5095886;28;20384;-78
2022/03/25 04:03:35;;;;;;;57.72;31.58;;;;;;;7.15;66.07;103143.03;5116563;28;20240;-78
2022/03/25 04:06:01;;;;;;;61.42;32.78;;;;;;;7.11;66.08;103140.44;5067091;28;20080;-78
2022/03/25 04:08:27;;;;;;;63.17;34.08;;;;;;;7.09;65.95;103136.03;5103038;28;20030;-78
2022/03/25 04:10:52;;;;;;;61.60;32.10;;;;;;;7.07;66.10;103143.84;5102554;28;20301;-79
2022/03/25 04:13:18;;;;;;;64.70;34.42;;;;;;;7.04;66.15;103151.66;5085252;28;20043;-79
2022/03/25 04:15:43;;;;;;;61.92;32.92;;;;;;;7.01;66.20;103146.38;5095590;27;20031;-78
2022/03/25 04:18:09;;;;;;;59.60;33.35;;;;;;;6.99;66.29;103148.09;5082442;28;20036;-79
2022/03/25 04:20:34;;;;;;;61.88;32.15;;;;;;;6.97;66.14;103149.81;5092642;28;20046;-78
2022/03/25 04:23:00;;;;;;;65.47;34.65;;;;;;;6.94;66.48;103152.38;5102362;28;20026;-78
2022/03/25 04:25:25;;;;;;;66.97;33.05;;;;;;;6.93;66.26;103150.66;5102351;28;20039;-78
2022/03/25 04:27:54;;;;;;;60.78;33.40;;;;;;;6.89;66.40;103152.34;5102684;28;20036;-78
2022/03/25 04:30:22;;;;;;;67.70;34.10;;;;;;;6.89;66.66;103156.66;5119818;28;20057;-78
2022/03/25 04:32:48;;;;;;;67.47;34.20;;;;;;;6.87;66.58;103156.63;5102284;28;20030;-78
2022/03/25 04:35:14;;;;;;;67.35;35.20;;;;;;;6.86;66.53;103159.25;5119672;28;20242;-78
2022/03/25 04:37:39;;;;;;;64.95;34.60;;;;;;;6.84;66.61;103158.34;5102401;28;20208;-78
2022/03/25 04:40:05;;;;;;;64.60;35.95;;;;;;;6.82;66.62;103165.25;5120823;28;20034;-78
2022/03/25 04:42:31;;;;;;;73.68;37.55;;;;;;;6.81;66.63;103161.78;5101306;28;20019;-78
2022/03/25 04:44:56;;;;;;;66.65;35.63;;;;;;;6.80;66.68;103160.03;5102389;28;20104;-79
2022/03/25 04:47:21;;;;;;;72.18;38.20;;;;;;;6.79;67.08;103158.28;5119599;28;20027;-79
2022/03/25 04:49:47;;;;;;;72.40;37.95;;;;;;;6.77;66.68;103154.81;5120346;28;20330;-78
2022/03/25 04:52:13;;;;;;;71.35;36.97;;;;;;;6.75;66.78;103158.22;5110857;27;20039;-78
2022/03/25 04:54:38;;;;;;;65.57;36.22;;;;;;;6.72;66.81;103162.53;5105352;27;20269;-78
2022/03/25 04:57:03;;;;;;;74.63;37.83;;;;;;;6.70;67.06;103163.41;5141182;27;20027;-79
2022/03/25 04:59:29;;;;;;;69.30;37.15;;;;;;;6.66;67.13;103165.09;5104951;27;20323;-79
2022/03/25 05:01:55;;;;;;;66.72;35.42;;;;;;;6.63;67.00;103165.03;5141211;27;20031;-78
2022/03/25 05:04:20;;;;;;;69.65;36.72;;;;;;;6.61;67.10;103164.16;5116080;28;20327;-78
2022/03/25 05:06:46;;;;;;;67.35;37.03;;;;;;;6.58;67.03;103163.22;5101814;28;20047;-78
2022/03/25 05:09:11;;;;;;;65.55;35.05;;;;;;;6.54;67.15;103160.56;5101285;28;20110;-78
2022/03/25 05:11:37;;;;;;;65.88;35.65;;;;;;;6.52;67.17;103166.63;5119968;28;20066;-78
2022/03/25 05:14:03;;;;;;;67.80;37.22;;;;;;;6.49;67.37;103172.69;5101969;28;20050;-78
2022/03/25 05:16:29;;;;;;;66.40;35.55;;;;;;;6.46;67.40;103171.75;5119187;28;20058;-78
2022/03/25 05:18:55;;;;;;;64.50;33.00;;;;;;;6.43;67.48;103180.38;5119679;28;20114;-78
2022/03/25 05:21:20;;;;;;;70.13;36.55;;;;;;;6.41;67.56;103178.63;5100959;28;20072;-78
2022/03/25 05:23:45;;;;;;;61.33;33.97;;;;;;;6.39;67.64;103180.34;5084683;28;20265;-78
2022/03/25 05:26:11;;;;;;;61.60;33.95;;;;;;;6.36;67.55;103180.28;5119958;28;20162;-78
2022/03/25 05:28:36;;;;;;;68.15;35.30;;;;;;;6.33;67.65;103178.50;5113310;27;20039;-78
2022/03/25 05:31:02;;;;;;;58.88;31.80;;;;;;;6.31;67.65;103175.91;5100111;28;20383;-78
2022/03/25 05:33:28;;;;;;;71.22;34.63;;;;;;;6.29;67.57;103175.00;5098909;28;20583;-78
2022/03/25 05:35:53;;;;;;;72.47;36.65;;;;;;;6.28;67.60;103180.19;5082788;27;20337;-78
2022/03/25 05:38:19;;;;;;;70.47;36.63;;;;;;;6.26;67.73;103180.16;5076113;28;20445;-78
2022/03/25 05:40:44;;;;;;;72.00;38.17;;;;;;;6.25;67.84;103185.31;5117105;28;20043;-78
2022/03/25 05:43:10;;;;;;;72.57;37.67;;;;;;;6.23;67.91;103177.50;5116094;28;20122;-78
2022/03/25 05:45:36;;;;;;;72.97;37.63;;;;;;;6.21;67.96;103191.34;5082255;28;20393;-78
2022/03/25 05:48:01;;;;;;;73.32;37.35;;;;;;;6.19;67.98;103191.31;5117487;28;20055;-78
2022/03/25 05:50:27;;;;;;;75.03;38.63;;;;;;;6.18;67.90;103194.75;5098242;28;20094;-78
2022/03/25 05:52:52;;;;;;;75.57;39.97;;;;;;;6.17;68.07;103187.81;5117392;28;20028;-78
2022/03/25 05:55:18;;;;;;;76.75;40.10;;;;;;;6.16;68.09;103188.66;5117441;28;20050;-78
2022/03/25 05:57:44;;;;;;;75.68;38.95;;;;;;;6.17;68.05;103192.13;5114727;28;20031;-78
2022/03/25 06:00:11;;;;;;;80.50;40.63;;;;;;;6.15;68.02;103189.53;5126835;27;20051;-78
2022/03/25 06:02:36;;;;;;;82.43;40.55;;;;;;;6.14;68.14;103188.63;5132361;27;20222;-78
2022/03/25 06:05:02;;;;;;;74.28;39.05;;;;;;;6.14;68.14;103186.03;5084658;28;20094;-78
2022/03/25 06:07:37;;;;;;;75.32;39.13;;;;;;;6.14;68.25;103195.56;5080741;28;20195;-78
2022/03/25 06:10:04;;;;;;;73.20;39.08;;;;;;;6.12;68.41;103195.53;5117662;27;20316;-78
2022/03/25 06:12:30;;;;;;;80.28;39.25;;;;;;;6.11;68.43;103191.22;5113209;28;20080;-78
2022/03/25 06:14:55;;;;;;;68.88;36.50;;;;;;;6.10;68.31;103199.84;5117685;27;20044;-78
2022/03/25 06:17:21;;;;;;;77.32;38.33;;;;;;;6.10;68.52;103194.66;5092611;28;20039;-78
2022/03/25 06:19:46;;;;;;;72.80;38.55;;;;;;;6.10;68.80;103199.84;5116830;28;20322;-78
2022/03/25 06:22:11;;;;;;;74.05;37.47;;;;;;;6.10;68.46;103202.44;5110751;27;20031;-78
2022/03/25 06:24:37;;;;;;;74.22;38.00;;;;;;;6.11;68.42;103203.31;5082434;28;20033;-78
2022/03/25 06:27:03;;;;;;;79.30;38.75;;;;;;;6.11;68.70;103199.00;5098339;28;20039;-78
2022/03/25 06:29:29;;;;;;;74.28;38.47;;;;;;;6.12;68.84;103207.69;5096980;28;20216;-78
2022/03/25 06:31:55;;;;;;;79.35;40.13;;;;;;;6.13;68.88;103212.03;5098248;28;20145;-78
2022/03/25 06:34:21;;;;;;;79.03;41.90;;;;;;;6.15;69.22;103212.94;5125572;27;20298;-78
2022/03/25 06:36:50;;;;;;;81.68;42.05;;;;;;;6.17;69.27;103211.25;5097826;28;20035;-78
2022/03/25 06:39:15;;;;;;;81.03;41.47;;;;;;;6.19;69.14;103219.06;5097348;28;20583;-78
2022/03/25 06:41:41;;;;;;;87.88;42.10;;;;;;;6.21;69.15;103226.03;5117007;28;20040;-78
2022/03/25 06:44:06;;;;;;;77.75;40.97;;;;;;;6.24;69.38;103222.59;5097797;28;20031;-78
2022/03/25 06:46:32;;;;;;;80.72;40.97;;;;;;;6.25;69.84;103220.03;5080358;28;20347;-78
2022/03/25 06:48:58;;;;;;;82.78;41.45;;;;;;;6.27;70.10;103218.31;5116691;28;20316;-78
2022/03/25 06:51:24;;;;;;;74.63;40.53;;;;;;;6.31;70.06;103229.66;5063563;28;20114;-78
2022/03/25 06:53:50;;;;;;;92.45;47.95;;;;;;;6.32;71.05;103226.22;5080770;28;20024;-78
2022/03/25 06:56:15;;;;;;;100.13;50.33;;;;;;;6.33;72.16;103227.94;5096922;28;20031;-78
2022/03/25 06:58:41;;;;;;;98.65;50.88;;;;;;;6.36;72.78;103238.41;5100504;28;20040;-78
2022/03/25 07:01:07;;;;;;;88.72;46.88;;;;;;;6.38;73.22;103228.03;5089475;27;20113;-78
2022/03/25 07:03:35;;;;;;;101.57;51.97;;;;;;;6.40;73.96;103228.91;5116063;27;20032;-78
2022/03/25 07:06:01;;;;;;;110.13;54.85;;;;;;;6.42;74.30;103232.41;5147305;27;20106;-79
2022/03/25 07:08:30;;;;;;;118.68;58.50;;;;;;;6.41;75.88;103230.69;5100569;28;20050;-78
2022/03/25 07:10:56;;;;;;;100.30;52.80;;;;;;;6.44;75.35;103231.59;5116084;28;20073;-79
2022/03/25 07:13:22;;;;;;;81.95;44.20;;;;;;;6.50;74.81;103247.31;5116145;28;20023;-78
2022/03/25 07:15:47;;;;;;;111.13;58.30;;;;;;;6.48;77.05;103249.00;5099053;27;20221;-78
2022/03/25 07:18:13;;;;;;;110.13;58.45;;;;;;;6.49;77.51;103242.97;5113758;28;20111;-78
2022/03/25 07:20:38;;;;;;;104.90;55.22;;;;;;;6.52;77.62;103250.81;5115790;28;20039;-78
2022/03/25 07:23:04;;;;;;;106.47;54.42;;;;;;;6.53;77.73;103252.56;5115555;28;20051;-78
2022/03/25 07:25:31;;;;;;;117.28;57.92;;;;;;;6.54;78.79;103264.72;5115257;28;20054;-78
2022/03/25 07:27:56;;;;;;;114.40;59.08;;;;;;;6.54;79.48;103256.91;5080953;28;20204;-78
2022/03/25 07:30:22;;;;;;;115.75;60.60;;;;;;;6.56;79.59;103261.28;5115066;28;20140;-78
2022/03/25 07:32:47;;;;;;;115.40;59.05;;;;;;;6.61;79.39;103257.88;5094196;28;20103;-78
2022/03/25 07:35:13;;;;;;;114.95;58.30;;;;;;;6.63;80.05;103263.13;5104385;28;20335;-78
2022/03/25 07:37:40;;;;;;;110.70;58.08;;;;;;;6.66;79.82;103256.22;5079341;28;20059;-78
2022/03/25 07:40:09;;;;;;;98.90;51.20;;;;;;;6.74;79.24;103264.13;5097002;28;20270;-78
2022/03/25 07:42:36;;;;;;;111.03;57.55;;;;;;;6.76;80.01;103257.22;5100450;28;20024;-78
2022/03/25 07:45:04;;;;;;;112.03;58.90;;;;;;;6.77;81.24;103263.28;5119854;28;20035;-79
2022/03/25 07:47:32;;;;;;;110.03;56.75;;;;;;;6.81;80.75;103263.38;5094642;28;20039;-78
2022/03/25 07:49:59;;;;;;;106.18;54.55;;;;;;;6.88;80.37;103267.81;5101348;28;20299;-78
2022/03/25 07:52:24;;;;;;;102.20;54.58;;;;;;;6.88;80.60;103275.63;5093537;28;20315;-78
2022/03/25 07:54:50;;;;;;;108.75;55.50;;;;;;;6.90;80.38;103273.91;5112521;28;20039;-78
2022/03/25 07:57:15;;;;;;;103.80;54.58;;;;;;;6.95;80.23;103274.00;5090557;28;20238;-78
2022/03/25 07:59:41;;;;;;;100.05;53.58;;;;;;;7.03;79.91;103280.16;5101581;28;20099;-79
2022/03/25 08:02:06;;;;;;;107.03;55.28;;;;;;;7.06;79.23;103282.81;5115255;28;20060;-78
2022/03/25 08:04:32;;;;;;;103.72;54.83;;;;;;;7.09;78.83;103289.78;5097393;28;20356;-78
2022/03/25 08:06:57;;;;;;;101.38;53.30;;;;;;;7.11;78.68;103294.19;5096233;28;20049;-78
2022/03/25 08:09:23;;;;;;;92.60;51.35;;;;;;;7.12;78.14;103287.22;5109756;28;20040;-79
2022/03/25 08:11:49;;;;;;;103.15;53.05;;;;;;;7.18;78.16;103287.28;5074412;28;20040;-78
2022/03/25 08:14:15;;;;;;;106.35;52.38;;;;;;;7.23;78.18;103289.97;5107130;28;20035;-79
2022/03/25 08:16:42;;;;;;;95.68;51.83;;;;;;;7.26;77.83;103293.50;5078653;28;20110;-78
2022/03/25 08:19:07;;;;;;;95.00;52.08;;;;;;;7.30;77.45;103295.28;5080998;28;20055;-78
2022/03/25 08:21:33;;;;;;;96.57;52.30;;;;;;;7.38;77.29;103295.34;5090521;28;20067;-79
2022/03/25 08:29:27;;;;;;;95.72;51.53;;;;;;;7.51;77.07;103309.41;5110036;27;20432;-79
2022/03/25 08:31:53;;;;;;;97.13;51.72;;;;;;;7.57;77.14;103312.09;5114694;28;20044;-81
2022/03/25 08:34:18;;;;;;;95.72;52.03;;;;;;;7.65;76.53;103312.19;5098502;28;20031;-79
2022/03/25 08:36:47;;;;;;;92.55;48.47;;;;;;;7.70;75.66;103313.13;5114414;28;20097;-82
2022/03/25 08:39:13;;;;;;;93.85;48.72;;;;;;;7.75;75.90;103310.53;5112692;28;20088;-79
2022/03/25 08:41:38;;;;;;;91.00;49.10;;;;;;;7.81;75.94;103306.28;5093333;28;20039;-79
2022/03/25 08:44:04;;;;;;;91.57;46.90;;;;;;;7.89;75.73;103316.78;5103033;28;20046;-79
2022/03/25 08:46:30;;;;;;;84.65;46.65;;;;;;;7.96;75.63;103312.50;5095699;28;20095;-79
2022/03/25 08:48:55;;;;;;;94.53;49.20;;;;;;;8.04;75.42;103314.34;5105007;28;20267;-79
2022/03/25 08:51:21;;;;;;;88.70;46.67;;;;;;;8.09;75.41;103314.38;5103677;28;20091;-79
2022/03/25 08:53:46;;;;;;;92.75;46.83;;;;;;;8.14;75.27;103323.13;5081184;28;20223;-79
2022/03/25 08:56:13;;;;;;;91.38;47.33;;;;;;;8.20;74.79;103319.69;5088916;28;20075;-79
2022/03/25 08:58:39;;;;;;;82.63;45.45;;;;;;;8.27;74.25;103316.28;5107842;28;20036;-79
2022/03/25 09:01:04;;;;;;;81.60;45.35;;;;;;;8.33;74.41;103318.06;5102182;28;20040;-79
2022/03/25 09:03:30;;;;;;;83.68;44.15;;;;;;;8.37;74.18;103314.63;5098884;28;20338;-79
2022/03/25 09:05:55;;;;;;;78.10;43.55;;;;;;;8.45;73.78;103318.19;5104764;28;20038;-79
2022/03/25 09:08:21;;;;;;;83.35;44.35;;;;;;;8.50;73.08;103324.34;5091320;28;20047;-79
2022/03/25 09:10:47;;;;;;;81.10;41.55;;;;;;;8.58;72.91;103321.78;5080946;28;20024;-79
2022/03/25 09:13:12;;;;;;;79.43;41.72;;;;;;;8.64;72.12;103322.69;5103482;28;20044;-79
2022/03/25 09:15:38;;;;;;;77.85;40.75;;;;;;;8.70;71.63;103323.63;5080802;28;20089;-79
2022/03/25 09:18:03;;;;;;;79.07;41.85;;;;;;;8.78;71.77;103324.53;5099265;28;20092;-79
2022/03/25 09:20:29;;;;;;;76.78;41.65;;;;;;;8.84;71.53;103322.84;5098082;28;20039;-79
2022/03/25 09:22:54;;;;;;;78.22;41.58;;;;;;;8.92;71.34;103324.63;5081175;28;20024;-79
2022/03/25 09:25:20;;;;;;;76.28;39.17;;;;;;;8.96;71.16;103327.25;5110754;28;20077;-79
2022/03/25 09:27:46;;;;;;;83.35;43.20;;;;;;;9.05;71.29;103330.78;5106108;28;20035;-79
2022/03/25 09:30:13;;;;;;;73.45;40.33;;;;;;;9.12;70.17;103329.97;5081662;28;20352;-79
2022/03/25 09:32:38;;;;;;;76.55;41.13;;;;;;;9.13;69.64;103326.47;5115399;27;20035;-79
2022/03/25 09:35:10;;;;;;;79.90;41.42;;;;;;;9.18;69.88;103327.38;5114706;28;20345;-79
2022/03/25 09:37:44;;;;;;;76.35;40.25;;;;;;;9.29;68.56;103330.03;5103941;28;20043;-79
2022/03/25 09:40:15;;;;;;;68.50;38.30;;;;;;;9.33;69.10;103327.44;5105869;28;20032;-79
2022/03/25 09:42:41;;;;;;;68.20;37.35;;;;;;;9.39;69.13;103327.47;5080769;28;20027;-79
2022/03/25 09:45:10;;;;;;;69.10;36.92;;;;;;;9.43;68.16;103323.13;5098855;28;20055;-79
2022/03/25 09:47:37;;;;;;;69.47;38.35;;;;;;;9.52;68.00;103322.28;5110419;27;20323;-79
2022/03/25 09:50:05;;;;;;;63.42;36.85;;;;;;;9.54;67.24;103321.41;5104907;28;20055;-79
2022/03/25 09:52:32;;;;;;;63.40;36.58;;;;;;;9.57;66.55;103316.19;5112690;28;20124;-79
2022/03/25 09:54:58;;;;;;;61.53;33.70;;;;;;;9.65;65.10;103323.19;5092357;28;20305;-79
2022/03/25 09:57:26;;;;;;;62.70;34.42;;;;;;;9.70;65.17;103319.72;5080611;28;20115;-79
2022/03/25 09:59:51;;;;;;;64.35;34.92;;;;;;;9.71;65.06;103324.06;5080029;28;20351;-79
2022/03/25 10:02:17;;;;;;;61.22;34.38;;;;;;;9.75;64.93;103325.84;5111886;28;20035;-79
2022/03/25 10:04:44;;;;;;;61.45;35.55;;;;;;;9.83;64.14;103333.72;5080861;28;20043;-79
2022/03/25 10:07:20;;;;;;;58.78;34.25;;;;;;;9.92;64.83;103333.72;5086810;28;20035;-79
2022/03/25 10:09:48;;;;;;;62.50;34.35;;;;;;;9.96;63.41;103325.00;5110282;28;20039;-79
2022/03/25 10:12:22;;;;;;;58.42;33.92;;;;;;;9.99;63.54;103324.16;5101827;28;20081;-79
2022/03/25 10:14:51;;;;;;;62.05;34.72;;;;;;;10.01;62.42;103330.25;5088884;28;20039;-79
2022/03/25 10:17:17;;;;;;;58.67;33.10;;;;;;;10.04;63.34;103326.75;5088382;28;20399;-80
2022/03/25 10:19:51;;;;;;;63.90;33.67;;;;;;;10.04;63.55;103322.41;5113158;28;20058;-80
2022/03/25 10:22:17;;;;;;;54.13;31.65;;;;;;;10.08;60.97;103326.78;5101512;28;20064;-79
2022/03/25 10:24:53;;;;;;;51.20;30.38;;;;;;;10.13;60.75;103321.53;5089477;28;20397;-79
2022/03/25 10:27:24;;;;;;;55.80;30.52;;;;;;;10.14;60.57;103313.69;5107916;28;20035;-79
2022/03/25 10:29:54;;;;;;;58.22;32.38;;;;;;;10.18;61.45;103315.41;5105297;28;20043;-79
2022/03/25 10:32:24;;;;;;;51.22;30.77;;;;;;;10.24;61.13;103311.06;5103503;28;20040;-79
2022/03/25 10:35:03;;;;;;;52.92;30.17;;;;;;;10.33;61.19;103313.72;5113511;28;20031;-79
2022/03/25 10:37:29;;;;;;;54.75;29.42;;;;;;;10.42;60.02;103312.84;5089645;28;20056;-79
2022/03/25 10:39:54;;;;;;;45.45;26.88;;;;;;;10.50;58.18;103306.72;5100492;28;20072;-79
2022/03/25 10:42:20;;;;;;;55.28;29.55;;;;;;;10.51;58.59;103300.63;5109293;28;20066;-79
2022/03/25 10:44:46;;;;;;;54.97;28.08;;;;;;;10.57;58.36;103305.84;5116668;27;20030;-79
2022/03/25 10:47:28;;;;;;;54.92;28.70;;;;;;;10.69;58.02;103304.94;5095668;28;20417;-79
2022/03/25 10:49:55;;;;;;;52.72;27.00;;;;;;;10.69;57.80;103291.84;5078231;28;20032;-79
2022/03/25 10:52:22;;;;;;;53.03;28.73;;;;;;;10.75;57.88;103297.09;5059629;28;20042;-79
2022/03/25 10:54:48;;;;;;;65.93;28.25;;;;;;;10.82;56.42;103295.31;5096255;28;20028;-79
2022/03/25 10:57:15;;;;;;;47.80;27.40;;;;;;;10.87;57.10;103298.78;5094721;27;20424;-79
2022/03/25 10:59:41;;;;;;;44.63;26.00;;;;;;;10.91;56.86;103303.16;5100787;28;20034;-79
2022/03/25 11:02:08;;;;;;;45.97;25.45;;;;;;;11.00;56.09;103297.00;5101117;28;20028;-79
2022/03/25 11:04:34;;;;;;;51.03;24.80;;;;;;;11.03;55.21;103299.63;5105608;28;20063;-79
2022/03/25 11:07:03;;;;;;;39.80;22.85;;;;;;;11.11;54.41;103295.25;5109689;28;20042;-79
2022/03/25 11:09:30;;;;;;;42.38;22.58;;;;;;;11.12;54.46;103303.97;5087357;28;20403;-80
2022/03/25 11:11:59;;;;;;;36.55;18.73;;;;;;;11.11;53.19;103289.09;5110802;28;20257;-79
2022/03/25 11:14:25;;;;;;;34.03;18.67;;;;;;;11.17;53.24;103294.34;5115779;27;20035;-79
2022/03/25 11:16:59;;;;;;;36.58;19.10;;;;;;;11.26;52.43;103294.28;5114575;27;20038;-80
2022/03/25 11:19:26;;;;;;;36.30;18.80;;;;;;;11.28;50.27;103291.66;5117756;27;20095;-80